sensor_id;sensor_type;location;lat;lon;timestamp;temperature;humidity
13326;DHT22;6732;51.044;3.746;2022-07-05T00:01:57;19.10;99.00
13326;DHT22;6732;51.044;3.746;2022-07-05T00:04:23;19.10;99.10
13326;DHT22;6732;51.044;3.746;2022-07-05T00:06:49;19.10;99.20
13326;DHT22;6732;51.044;3.746;2022-07-05T00:09:34;19.00;99.10
13326;DHT22;6732;51.044;3.746;2022-07-05T00:12:01;19.00;98.90
13326;DHT22;6732;51.044;3.746;2022-07-05T00:14:27;19.00;98.60
13326;DHT22;6732;51.044;3.746;2022-07-05T00:16:53;19.00;98.60
13326;DHT22;6732;51.044;3.746;2022-07-05T00:19:19;19.00;98.70
13326;DHT22;6732;51.044;3.746;2022-07-05T00:21:45;19.00;98.60
13326;DHT22;6732;51.044;3.746;2022-07-05T00:24:11;18.90;98.30
13326;DHT22;6732;51.044;3.746;2022-07-05T00:26:37;18.90;98.40
13326;DHT22;6732;51.044;3.746;2022-07-05T00:29:03;18.90;98.40
13326;DHT22;6732;51.044;3.746;2022-07-05T00:31:29;18.90;98.40
13326;DHT22;6732;51.044;3.746;2022-07-05T00:33:54;18.90;98.50
13326;DHT22;6732;51.044;3.746;2022-07-05T00:36:20;18.80;98.50
13326;DHT22;6732;51.044;3.746;2022-07-05T00:38:46;18.80;98.50
13326;DHT22;6732;51.044;3.746;2022-07-05T00:41:12;18.80;98.50
13326;DHT22;6732;51.044;3.746;2022-07-05T00:43:55;18.80;98.50
13326;DHT22;6732;51.044;3.746;2022-07-05T00:46:21;18.80;98.40
13326;DHT22;6732;51.044;3.746;2022-07-05T00:48:48;18.80;98.40
13326;DHT22;6732;51.044;3.746;2022-07-05T00:51:14;18.80;98.50
13326;DHT22;6732;51.044;3.746;2022-07-05T00:53:41;18.80;98.50
13326;DHT22;6732;51.044;3.746;2022-07-05T00:56:10;18.80;98.50
13326;DHT22;6732;51.044;3.746;2022-07-05T00:58:36;18.70;98.80
13326;DHT22;6732;51.044;3.746;2022-07-05T01:01:04;18.70;98.40
13326;DHT22;6732;51.044;3.746;2022-07-05T01:03:32;18.70;98.40
13326;DHT22;6732;51.044;3.746;2022-07-05T01:06:02;18.70;98.50
13326;DHT22;6732;51.044;3.746;2022-07-05T01:08:29;18.70;98.40
13326;DHT22;6732;51.044;3.746;2022-07-05T01:10:55;18.70;98.40
13326;DHT22;6732;51.044;3.746;2022-07-05T01:13:22;18.70;98.50
13326;DHT22;6732;51.044;3.746;2022-07-05T01:15:48;18.60;98.50
13326;DHT22;6732;51.044;3.746;2022-07-05T01:18:15;18.70;98.40
13326;DHT22;6732;51.044;3.746;2022-07-05T01:20:41;18.60;98.60
13326;DHT22;6732;51.044;3.746;2022-07-05T01:23:08;18.60;98.50
13326;DHT22;6732;51.044;3.746;2022-07-05T01:25:34;18.60;98.60
13326;DHT22;6732;51.044;3.746;2022-07-05T01:28:01;18.60;98.50
13326;DHT22;6732;51.044;3.746;2022-07-05T01:30:28;18.50;98.50
13326;DHT22;6732;51.044;3.746;2022-07-05T01:32:55;18.50;98.50
13326;DHT22;6732;51.044;3.746;2022-07-05T01:35:21;18.50;98.60
13326;DHT22;6732;51.044;3.746;2022-07-05T01:37:49;18.50;98.60
13326;DHT22;6732;51.044;3.746;2022-07-05T01:40:17;18.50;98.60
13326;DHT22;6732;51.044;3.746;2022-07-05T01:42:42;18.50;98.70
13326;DHT22;6732;51.044;3.746;2022-07-05T01:45:09;18.50;98.70
13326;DHT22;6732;51.044;3.746;2022-07-05T01:47:37;18.50;98.80
13326;DHT22;6732;51.044;3.746;2022-07-05T01:50:05;18.40;98.70
13326;DHT22;6732;51.044;3.746;2022-07-05T01:52:34;18.40;98.80
13326;DHT22;6732;51.044;3.746;2022-07-05T01:55:03;18.40;98.80
13326;DHT22;6732;51.044;3.746;2022-07-05T01:57:29;18.50;98.60
13326;DHT22;6732;51.044;3.746;2022-07-05T01:59:55;18.40;98.70
13326;DHT22;6732;51.044;3.746;2022-07-05T02:02:21;18.40;98.70
13326;DHT22;6732;51.044;3.746;2022-07-05T02:04:47;18.40;98.90
13326;DHT22;6732;51.044;3.746;2022-07-05T02:07:13;18.30;98.70
13326;DHT22;6732;51.044;3.746;2022-07-05T02:09:39;18.30;98.80
13326;DHT22;6732;51.044;3.746;2022-07-05T02:12:05;18.30;98.80
13326;DHT22;6732;51.044;3.746;2022-07-05T02:14:32;18.30;98.70
13326;DHT22;6732;51.044;3.746;2022-07-05T02:16:58;18.30;98.80
13326;DHT22;6732;51.044;3.746;2022-07-05T02:19:24;18.30;98.60
13326;DHT22;6732;51.044;3.746;2022-07-05T02:21:50;18.20;98.70
13326;DHT22;6732;51.044;3.746;2022-07-05T02:24:16;18.30;98.60
13326;DHT22;6732;51.044;3.746;2022-07-05T02:26:41;18.20;98.60
13326;DHT22;6732;51.044;3.746;2022-07-05T02:29:07;18.20;98.80
13326;DHT22;6732;51.044;3.746;2022-07-05T02:31:33;18.20;98.80
13326;DHT22;6732;51.044;3.746;2022-07-05T02:33:59;18.20;98.80
13326;DHT22;6732;51.044;3.746;2022-07-05T02:36:26;18.20;98.80
13326;DHT22;6732;51.044;3.746;2022-07-05T02:38:51;18.20;98.70
13326;DHT22;6732;51.044;3.746;2022-07-05T02:41:18;18.20;98.70
13326;DHT22;6732;51.044;3.746;2022-07-05T02:43:49;18.20;98.70
13326;DHT22;6732;51.044;3.746;2022-07-05T02:46:17;18.20;98.70
13326;DHT22;6732;51.044;3.746;2022-07-05T02:48:43;18.10;98.70
13326;DHT22;6732;51.044;3.746;2022-07-05T02:51:13;18.10;98.80
13326;DHT22;6732;51.044;3.746;2022-07-05T02:53:42;18.10;98.90
13326;DHT22;6732;51.044;3.746;2022-07-05T02:56:08;18.10;98.80
13326;DHT22;6732;51.044;3.746;2022-07-05T02:58:33;18.10;98.80
13326;DHT22;6732;51.044;3.746;2022-07-05T03:00:59;18.10;98.90
13326;DHT22;6732;51.044;3.746;2022-07-05T03:03:32;18.00;99.00
13326;DHT22;6732;51.044;3.746;2022-07-05T03:05:58;18.00;98.90
13326;DHT22;6732;51.044;3.746;2022-07-05T03:08:30;18.00;99.00
13326;DHT22;6732;51.044;3.746;2022-07-05T03:10:56;18.00;98.90
13326;DHT22;6732;51.044;3.746;2022-07-05T03:13:22;18.00;99.00
13326;DHT22;6732;51.044;3.746;2022-07-05T03:15:47;18.00;99.00
13326;DHT22;6732;51.044;3.746;2022-07-05T03:18:13;17.90;99.10
13326;DHT22;6732;51.044;3.746;2022-07-05T03:20:39;17.90;99.10
13326;DHT22;6732;51.044;3.746;2022-07-05T03:23:05;18.00;99.10
13326;DHT22;6732;51.044;3.746;2022-07-05T03:25:31;17.90;99.00
13326;DHT22;6732;51.044;3.746;2022-07-05T03:27:57;18.00;99.00
13326;DHT22;6732;51.044;3.746;2022-07-05T03:30:23;17.90;99.00
13326;DHT22;6732;51.044;3.746;2022-07-05T03:32:49;17.90;99.10
13326;DHT22;6732;51.044;3.746;2022-07-05T03:35:15;17.90;99.00
13326;DHT22;6732;51.044;3.746;2022-07-05T03:37:41;17.90;99.10
13326;DHT22;6732;51.044;3.746;2022-07-05T03:40:07;17.90;99.20
13326;DHT22;6732;51.044;3.746;2022-07-05T03:42:34;17.90;99.20
13326;DHT22;6732;51.044;3.746;2022-07-05T03:45:01;17.90;99.30
13326;DHT22;6732;51.044;3.746;2022-07-05T03:47:27;17.90;99.30
13326;DHT22;6732;51.044;3.746;2022-07-05T03:49:54;17.90;99.20
13326;DHT22;6732;51.044;3.746;2022-07-05T03:52:20;17.90;99.30
13326;DHT22;6732;51.044;3.746;2022-07-05T03:54:46;17.90;99.30
13326;DHT22;6732;51.044;3.746;2022-07-05T03:57:13;17.90;99.40
13326;DHT22;6732;51.044;3.746;2022-07-05T03:59:39;17.80;99.50
13326;DHT22;6732;51.044;3.746;2022-07-05T04:02:05;17.80;99.50
13326;DHT22;6732;51.044;3.746;2022-07-05T04:04:32;17.80;99.50
13326;DHT22;6732;51.044;3.746;2022-07-05T04:06:58;17.80;99.50
13326;DHT22;6732;51.044;3.746;2022-07-05T04:09:24;17.80;99.60
13326;DHT22;6732;51.044;3.746;2022-07-05T04:11:50;17.70;99.80
13326;DHT22;6732;51.044;3.746;2022-07-05T04:14:16;17.80;99.70
13326;DHT22;6732;51.044;3.746;2022-07-05T04:16:42;17.70;99.80
13326;DHT22;6732;51.044;3.746;2022-07-05T04:19:07;17.70;99.90
13326;DHT22;6732;51.044;3.746;2022-07-05T04:21:33;17.70;99.80
13326;DHT22;6732;51.044;3.746;2022-07-05T04:23:59;17.80;99.80
13326;DHT22;6732;51.044;3.746;2022-07-05T04:26:25;17.70;99.90
13326;DHT22;6732;51.044;3.746;2022-07-05T04:28:51;17.70;99.90
13326;DHT22;6732;51.044;3.746;2022-07-05T04:31:17;17.70;99.90
13326;DHT22;6732;51.044;3.746;2022-07-05T04:33:42;17.70;99.90
13326;DHT22;6732;51.044;3.746;2022-07-05T04:36:09;17.70;99.90
13326;DHT22;6732;51.044;3.746;2022-07-05T04:38:35;17.80;99.90
13326;DHT22;6732;51.044;3.746;2022-07-05T04:41:00;17.70;99.90
13326;DHT22;6732;51.044;3.746;2022-07-05T04:43:26;17.70;99.90
13326;DHT22;6732;51.044;3.746;2022-07-05T04:45:52;17.70;99.90
13326;DHT22;6732;51.044;3.746;2022-07-05T04:48:18;17.70;99.90
13326;DHT22;6732;51.044;3.746;2022-07-05T04:50:44;17.70;99.90
13326;DHT22;6732;51.044;3.746;2022-07-05T04:53:10;17.70;99.90
13326;DHT22;6732;51.044;3.746;2022-07-05T04:55:36;17.70;99.90
13326;DHT22;6732;51.044;3.746;2022-07-05T04:58:02;17.80;99.90
13326;DHT22;6732;51.044;3.746;2022-07-05T05:00:28;17.80;99.90
13326;DHT22;6732;51.044;3.746;2022-07-05T05:02:54;17.80;99.90
13326;DHT22;6732;51.044;3.746;2022-07-05T05:05:20;17.80;99.90
13326;DHT22;6732;51.044;3.746;2022-07-05T05:07:46;17.80;99.90
13326;DHT22;6732;51.044;3.746;2022-07-05T05:10:13;17.70;99.90
13326;DHT22;6732;51.044;3.746;2022-07-05T05:12:39;17.80;99.90
13326;DHT22;6732;51.044;3.746;2022-07-05T05:15:05;17.70;99.90
13326;DHT22;6732;51.044;3.746;2022-07-05T05:17:39;17.70;99.90
13326;DHT22;6732;51.044;3.746;2022-07-05T05:20:16;17.80;99.90
13326;DHT22;6732;51.044;3.746;2022-07-05T05:22:43;17.80;99.90
13326;DHT22;6732;51.044;3.746;2022-07-05T05:25:10;17.80;99.90
13326;DHT22;6732;51.044;3.746;2022-07-05T05:27:41;17.80;99.90
13326;DHT22;6732;51.044;3.746;2022-07-05T05:30:08;17.80;99.90
13326;DHT22;6732;51.044;3.746;2022-07-05T05:32:34;17.80;99.90
13326;DHT22;6732;51.044;3.746;2022-07-05T05:35:00;17.80;99.90
13326;DHT22;6732;51.044;3.746;2022-07-05T05:37:26;17.80;99.90
13326;DHT22;6732;51.044;3.746;2022-07-05T05:39:52;17.80;99.90
13326;DHT22;6732;51.044;3.746;2022-07-05T05:42:17;17.80;99.90
13326;DHT22;6732;51.044;3.746;2022-07-05T05:44:43;17.80;99.90
13326;DHT22;6732;51.044;3.746;2022-07-05T05:47:09;17.80;99.90
13326;DHT22;6732;51.044;3.746;2022-07-05T05:49:35;17.90;99.90
13326;DHT22;6732;51.044;3.746;2022-07-05T05:52:01;17.90;99.90
13326;DHT22;6732;51.044;3.746;2022-07-05T05:54:27;17.90;99.90
13326;DHT22;6732;51.044;3.746;2022-07-05T05:56:53;17.90;99.90
13326;DHT22;6732;51.044;3.746;2022-07-05T05:59:19;17.90;99.90
13326;DHT22;6732;51.044;3.746;2022-07-05T06:01:45;17.90;99.90
13326;DHT22;6732;51.044;3.746;2022-07-05T06:04:11;17.90;99.90
13326;DHT22;6732;51.044;3.746;2022-07-05T06:06:37;17.90;99.90
13326;DHT22;6732;51.044;3.746;2022-07-05T06:09:03;18.00;99.90
13326;DHT22;6732;51.044;3.746;2022-07-05T06:11:29;18.00;99.90
13326;DHT22;6732;51.044;3.746;2022-07-05T06:13:56;18.00;99.90
13326;DHT22;6732;51.044;3.746;2022-07-05T06:16:21;18.00;99.90
13326;DHT22;6732;51.044;3.746;2022-07-05T06:18:47;18.00;99.90
13326;DHT22;6732;51.044;3.746;2022-07-05T06:21:13;18.10;99.90
13326;DHT22;6732;51.044;3.746;2022-07-05T06:23:39;18.10;99.90
13326;DHT22;6732;51.044;3.746;2022-07-05T06:26:05;18.10;99.90
13326;DHT22;6732;51.044;3.746;2022-07-05T06:28:31;18.10;99.90
13326;DHT22;6732;51.044;3.746;2022-07-05T06:30:58;18.10;99.90
13326;DHT22;6732;51.044;3.746;2022-07-05T06:33:24;18.20;99.90
13326;DHT22;6732;51.044;3.746;2022-07-05T06:35:50;18.20;99.90
13326;DHT22;6732;51.044;3.746;2022-07-05T06:38:16;18.20;99.90
13326;DHT22;6732;51.044;3.746;2022-07-05T06:40:42;18.30;99.90
13326;DHT22;6732;51.044;3.746;2022-07-05T06:43:10;18.30;99.90
13326;DHT22;6732;51.044;3.746;2022-07-05T06:45:37;18.30;99.90
13326;DHT22;6732;51.044;3.746;2022-07-05T06:48:06;18.30;99.90
13326;DHT22;6732;51.044;3.746;2022-07-05T06:50:34;18.40;99.90
13326;DHT22;6732;51.044;3.746;2022-07-05T06:53:04;18.40;99.90
13326;DHT22;6732;51.044;3.746;2022-07-05T06:55:31;18.40;99.90
13326;DHT22;6732;51.044;3.746;2022-07-05T06:58:03;18.50;99.90
13326;DHT22;6732;51.044;3.746;2022-07-05T07:00:29;18.50;99.90
13326;DHT22;6732;51.044;3.746;2022-07-05T07:03:06;18.50;99.90
13326;DHT22;6732;51.044;3.746;2022-07-05T07:05:32;18.50;99.90
13326;DHT22;6732;51.044;3.746;2022-07-05T07:07:58;18.60;99.90
13326;DHT22;6732;51.044;3.746;2022-07-05T07:10:42;18.60;99.90
13326;DHT22;6732;51.044;3.746;2022-07-05T07:13:08;18.70;99.90
13326;DHT22;6732;51.044;3.746;2022-07-05T07:15:34;18.70;99.90
13326;DHT22;6732;51.044;3.746;2022-07-05T07:18:00;18.70;99.90
13326;DHT22;6732;51.044;3.746;2022-07-05T07:20:27;18.80;99.90
13326;DHT22;6732;51.044;3.746;2022-07-05T07:22:53;18.80;99.90
13326;DHT22;6732;51.044;3.746;2022-07-05T07:25:19;18.80;99.90
13326;DHT22;6732;51.044;3.746;2022-07-05T07:27:53;18.80;99.90
13326;DHT22;6732;51.044;3.746;2022-07-05T07:30:30;18.90;99.90
13326;DHT22;6732;51.044;3.746;2022-07-05T07:32:56;18.90;99.90
13326;DHT22;6732;51.044;3.746;2022-07-05T07:35:22;19.00;99.90
13326;DHT22;6732;51.044;3.746;2022-07-05T07:37:48;19.00;99.90
13326;DHT22;6732;51.044;3.746;2022-07-05T07:40:14;19.00;99.90
13326;DHT22;6732;51.044;3.746;2022-07-05T07:42:40;19.10;99.90
13326;DHT22;6732;51.044;3.746;2022-07-05T07:45:07;19.20;99.90
13326;DHT22;6732;51.044;3.746;2022-07-05T07:47:34;19.30;99.90
13326;DHT22;6732;51.044;3.746;2022-07-05T07:50:02;19.30;99.90
13326;DHT22;6732;51.044;3.746;2022-07-05T07:52:29;19.40;99.90
13326;DHT22;6732;51.044;3.746;2022-07-05T07:55:00;19.40;99.90
13326;DHT22;6732;51.044;3.746;2022-07-05T07:57:27;19.50;99.90
13326;DHT22;6732;51.044;3.746;2022-07-05T07:59:53;19.60;99.90
13326;DHT22;6732;51.044;3.746;2022-07-05T08:02:19;19.60;99.90
13326;DHT22;6732;51.044;3.746;2022-07-05T08:04:47;19.70;99.90
13326;DHT22;6732;51.044;3.746;2022-07-05T08:07:14;19.80;99.90
13326;DHT22;6732;51.044;3.746;2022-07-05T08:09:40;19.90;99.90
13326;DHT22;6732;51.044;3.746;2022-07-05T08:12:06;20.00;99.90
13326;DHT22;6732;51.044;3.746;2022-07-05T08:14:32;20.10;99.90
13326;DHT22;6732;51.044;3.746;2022-07-05T08:16:58;20.10;99.90
13326;DHT22;6732;51.044;3.746;2022-07-05T08:19:24;20.20;99.90
13326;DHT22;6732;51.044;3.746;2022-07-05T08:22:09;20.20;99.90
13326;DHT22;6732;51.044;3.746;2022-07-05T08:24:38;20.30;99.90
13326;DHT22;6732;51.044;3.746;2022-07-05T08:27:07;20.30;99.90
13326;DHT22;6732;51.044;3.746;2022-07-05T08:29:34;20.30;99.90
13326;DHT22;6732;51.044;3.746;2022-07-05T08:32:00;20.30;99.90
13326;DHT22;6732;51.044;3.746;2022-07-05T08:34:26;20.40;99.90
13326;DHT22;6732;51.044;3.746;2022-07-05T08:36:52;20.50;99.90
13326;DHT22;6732;51.044;3.746;2022-07-05T08:39:19;20.60;99.90
13326;DHT22;6732;51.044;3.746;2022-07-05T08:41:48;20.60;99.90
13326;DHT22;6732;51.044;3.746;2022-07-05T08:44:18;20.60;99.90
13326;DHT22;6732;51.044;3.746;2022-07-05T08:46:45;20.60;99.90
13326;DHT22;6732;51.044;3.746;2022-07-05T08:49:13;20.70;99.90
13326;DHT22;6732;51.044;3.746;2022-07-05T08:51:41;20.70;99.90
13326;DHT22;6732;51.044;3.746;2022-07-05T08:54:11;20.70;99.90
13326;DHT22;6732;51.044;3.746;2022-07-05T08:56:40;20.70;99.90
13326;DHT22;6732;51.044;3.746;2022-07-05T08:59:06;20.70;99.60
13326;DHT22;6732;51.044;3.746;2022-07-05T09:01:33;20.70;99.80
13326;DHT22;6732;51.044;3.746;2022-07-05T09:04:03;20.80;99.90
13326;DHT22;6732;51.044;3.746;2022-07-05T09:06:31;20.90;99.90
13326;DHT22;6732;51.044;3.746;2022-07-05T09:08:59;21.00;99.90
13326;DHT22;6732;51.044;3.746;2022-07-05T09:11:31;21.10;99.90
13326;DHT22;6732;51.044;3.746;2022-07-05T09:14:02;21.30;99.50
13326;DHT22;6732;51.044;3.746;2022-07-05T09:16:28;21.50;98.90
13326;DHT22;6732;51.044;3.746;2022-07-05T09:18:55;21.70;98.50
13326;DHT22;6732;51.044;3.746;2022-07-05T09:21:26;21.90;97.50
13326;DHT22;6732;51.044;3.746;2022-07-05T09:24:01;22.10;98.00
13326;DHT22;6732;51.044;3.746;2022-07-05T09:29:14;22.40;97.50
13326;DHT22;6732;51.044;3.746;2022-07-05T09:31:43;22.50;96.30
13326;DHT22;6732;51.044;3.746;2022-07-05T09:34:11;22.60;96.70
13326;DHT22;6732;51.044;3.746;2022-07-05T09:36:56;22.80;95.90
13326;DHT22;6732;51.044;3.746;2022-07-05T09:42:19;23.00;95.50
13326;DHT22;6732;51.044;3.746;2022-07-05T09:44:55;22.90;95.10
13326;DHT22;6732;51.044;3.746;2022-07-05T09:47:23;22.80;96.30
13326;DHT22;6732;51.044;3.746;2022-07-05T09:49:51;22.90;96.90
13326;DHT22;6732;51.044;3.746;2022-07-05T09:52:33;22.60;96.40
13326;DHT22;6732;51.044;3.746;2022-07-05T09:55:13;22.40;96.60
13326;DHT22;6732;51.044;3.746;2022-07-05T09:57:45;22.20;96.70
13326;DHT22;6732;51.044;3.746;2022-07-05T10:00:14;22.20;96.50
13326;DHT22;6732;51.044;3.746;2022-07-05T10:02:42;22.20;96.50
13326;DHT22;6732;51.044;3.746;2022-07-05T10:05:13;22.30;96.80
13326;DHT22;6732;51.044;3.746;2022-07-05T10:07:47;22.50;96.40
13326;DHT22;6732;51.044;3.746;2022-07-05T10:10:21;22.50;95.70
13326;DHT22;6732;51.044;3.746;2022-07-05T10:12:49;22.60;95.70
13326;DHT22;6732;51.044;3.746;2022-07-05T10:15:18;22.60;94.60
13326;DHT22;6732;51.044;3.746;2022-07-05T10:17:58;22.60;96.30
13326;DHT22;6732;51.044;3.746;2022-07-05T10:20:44;22.50;95.30
13326;DHT22;6732;51.044;3.746;2022-07-05T10:23:13;22.40;94.60
13326;DHT22;6732;51.044;3.746;2022-07-05T10:25:44;22.30;95.20
13326;DHT22;6732;51.044;3.746;2022-07-05T10:28:10;22.40;95.70
13326;DHT22;6732;51.044;3.746;2022-07-05T10:30:37;22.20;94.90
13326;DHT22;6732;51.044;3.746;2022-07-05T10:33:05;22.20;95.10
13326;DHT22;6732;51.044;3.746;2022-07-05T10:35:32;22.30;94.80
13326;DHT22;6732;51.044;3.746;2022-07-05T10:38:01;22.20;94.30
13326;DHT22;6732;51.044;3.746;2022-07-05T10:40:30;22.10;94.80
13326;DHT22;6732;51.044;3.746;2022-07-05T10:43:01;22.20;94.50
13326;DHT22;6732;51.044;3.746;2022-07-05T10:45:35;22.30;94.10
13326;DHT22;6732;51.044;3.746;2022-07-05T10:50:50;22.20;95.40
13326;DHT22;6732;51.044;3.746;2022-07-05T10:53:20;22.20;94.00
13326;DHT22;6732;51.044;3.746;2022-07-05T10:59:07;22.40;93.80
13326;DHT22;6732;51.044;3.746;2022-07-05T11:06:26;22.80;94.20
13326;DHT22;6732;51.044;3.746;2022-07-05T11:11:33;22.80;92.10
13326;DHT22;6732;51.044;3.746;2022-07-05T11:14:02;22.80;93.60
13326;DHT22;6732;51.044;3.746;2022-07-05T11:19:11;23.00;92.80
13326;DHT22;6732;51.044;3.746;2022-07-05T11:22:03;23.10;92.70
13326;DHT22;6732;51.044;3.746;2022-07-05T11:24:36;23.20;92.20
13326;DHT22;6732;51.044;3.746;2022-07-05T11:27:10;23.40;93.20
13326;DHT22;6732;51.044;3.746;2022-07-05T11:29:54;23.40;93.30
13326;DHT22;6732;51.044;3.746;2022-07-05T11:35:11;23.30;92.70
13326;DHT22;6732;51.044;3.746;2022-07-05T11:38:06;23.30;92.30
13326;DHT22;6732;51.044;3.746;2022-07-05T11:40:34;23.40;91.70
13326;DHT22;6732;51.044;3.746;2022-07-05T11:43:01;23.50;92.00
13326;DHT22;6732;51.044;3.746;2022-07-05T11:45:29;23.60;91.40
13326;DHT22;6732;51.044;3.746;2022-07-05T11:47:55;23.60;91.70
13326;DHT22;6732;51.044;3.746;2022-07-05T11:50:29;23.60;91.40
13326;DHT22;6732;51.044;3.746;2022-07-05T11:52:57;23.70;92.20
13326;DHT22;6732;51.044;3.746;2022-07-05T11:55:25;23.70;91.90
13326;DHT22;6732;51.044;3.746;2022-07-05T11:57:53;23.70;91.30
13326;DHT22;6732;51.044;3.746;2022-07-05T12:02:55;23.50;91.20
13326;DHT22;6732;51.044;3.746;2022-07-05T12:05:21;23.60;91.00
13326;DHT22;6732;51.044;3.746;2022-07-05T12:07:52;23.70;91.50
13326;DHT22;6732;51.044;3.746;2022-07-05T12:10:19;23.70;91.00
13326;DHT22;6732;51.044;3.746;2022-07-05T12:13:07;23.70;90.60
13326;DHT22;6732;51.044;3.746;2022-07-05T12:15:35;23.60;90.70
13326;DHT22;6732;51.044;3.746;2022-07-05T12:18:06;23.60;90.90
13326;DHT22;6732;51.044;3.746;2022-07-05T12:20:35;23.50;91.50
13326;DHT22;6732;51.044;3.746;2022-07-05T12:23:01;23.50;90.60
13326;DHT22;6732;51.044;3.746;2022-07-05T12:25:29;23.50;90.70
13326;DHT22;6732;51.044;3.746;2022-07-05T12:27:57;23.60;90.90
13326;DHT22;6732;51.044;3.746;2022-07-05T12:30:24;23.70;90.70
13326;DHT22;6732;51.044;3.746;2022-07-05T12:32:53;23.80;90.50
13326;DHT22;6732;51.044;3.746;2022-07-05T12:35:46;23.80;90.10
13326;DHT22;6732;51.044;3.746;2022-07-05T12:38:17;23.70;90.20
13326;DHT22;6732;51.044;3.746;2022-07-05T12:40:56;23.60;89.60
13326;DHT22;6732;51.044;3.746;2022-07-05T12:43:22;23.60;89.60
13326;DHT22;6732;51.044;3.746;2022-07-05T12:48:38;23.30;90.30
13326;DHT22;6732;51.044;3.746;2022-07-05T12:51:06;23.30;90.10
13326;DHT22;6732;51.044;3.746;2022-07-05T12:53:33;23.20;90.30
13326;DHT22;6732;51.044;3.746;2022-07-05T12:56:23;23.20;90.20
13326;DHT22;6732;51.044;3.746;2022-07-05T12:59:09;23.10;90.20
13326;DHT22;6732;51.044;3.746;2022-07-05T13:01:42;23.10;90.90
13326;DHT22;6732;51.044;3.746;2022-07-05T13:04:13;23.10;90.80
13326;DHT22;6732;51.044;3.746;2022-07-05T13:12:19;23.10;90.60
13326;DHT22;6732;51.044;3.746;2022-07-05T13:14:48;23.00;90.20
13326;DHT22;6732;51.044;3.746;2022-07-05T13:17:16;22.80;89.60
13326;DHT22;6732;51.044;3.746;2022-07-05T13:19:45;22.80;90.60
13326;DHT22;6732;51.044;3.746;2022-07-05T13:22:12;22.90;91.00
13326;DHT22;6732;51.044;3.746;2022-07-05T13:24:38;23.00;91.20
13326;DHT22;6732;51.044;3.746;2022-07-05T13:27:06;22.90;90.10
13326;DHT22;6732;51.044;3.746;2022-07-05T13:29:32;22.90;90.80
13326;DHT22;6732;51.044;3.746;2022-07-05T13:31:58;22.80;90.80
13326;DHT22;6732;51.044;3.746;2022-07-05T13:34:24;22.80;90.60
13326;DHT22;6732;51.044;3.746;2022-07-05T13:36:52;22.90;90.20
13326;DHT22;6732;51.044;3.746;2022-07-05T13:39:19;22.90;90.30
13326;DHT22;6732;51.044;3.746;2022-07-05T13:41:53;23.00;89.90
13326;DHT22;6732;51.044;3.746;2022-07-05T13:44:20;23.00;89.70
13326;DHT22;6732;51.044;3.746;2022-07-05T13:46:46;23.10;89.60
13326;DHT22;6732;51.044;3.746;2022-07-05T13:49:12;23.10;90.30
13326;DHT22;6732;51.044;3.746;2022-07-05T13:51:38;23.20;90.10
13326;DHT22;6732;51.044;3.746;2022-07-05T13:54:04;23.30;89.00
13326;DHT22;6732;51.044;3.746;2022-07-05T13:56:30;23.40;90.10
13326;DHT22;6732;51.044;3.746;2022-07-05T13:58:58;23.20;87.60
13326;DHT22;6732;51.044;3.746;2022-07-05T14:01:25;23.10;88.10
13326;DHT22;6732;51.044;3.746;2022-07-05T14:03:55;23.10;88.80
13326;DHT22;6732;51.044;3.746;2022-07-05T14:06:22;23.00;87.90
13326;DHT22;6732;51.044;3.746;2022-07-05T14:08:48;23.00;88.40
13326;DHT22;6732;51.044;3.746;2022-07-05T14:11:14;23.00;87.90
13326;DHT22;6732;51.044;3.746;2022-07-05T14:13:40;23.00;87.20
13326;DHT22;6732;51.044;3.746;2022-07-05T14:16:08;23.00;87.70
13326;DHT22;6732;51.044;3.746;2022-07-05T14:18:34;23.00;86.30
13326;DHT22;6732;51.044;3.746;2022-07-05T14:21:00;22.80;85.90
13326;DHT22;6732;51.044;3.746;2022-07-05T14:23:26;22.70;87.40
13326;DHT22;6732;51.044;3.746;2022-07-05T14:25:52;22.70;87.60
13326;DHT22;6732;51.044;3.746;2022-07-05T14:28:18;22.70;87.60
13326;DHT22;6732;51.044;3.746;2022-07-05T14:30:45;22.70;85.80
13326;DHT22;6732;51.044;3.746;2022-07-05T14:33:12;22.60;86.00
13326;DHT22;6732;51.044;3.746;2022-07-05T14:35:38;22.60;87.10
13326;DHT22;6732;51.044;3.746;2022-07-05T14:38:04;22.60;88.40
13326;DHT22;6732;51.044;3.746;2022-07-05T14:40:31;22.70;87.20
13326;DHT22;6732;51.044;3.746;2022-07-05T14:42:58;22.60;85.50
13326;DHT22;6732;51.044;3.746;2022-07-05T14:45:25;22.60;86.00
13326;DHT22;6732;51.044;3.746;2022-07-05T14:47:52;22.70;88.00
13326;DHT22;6732;51.044;3.746;2022-07-05T14:50:19;22.70;85.80
13326;DHT22;6732;51.044;3.746;2022-07-05T14:52:46;22.70;87.40
13326;DHT22;6732;51.044;3.746;2022-07-05T14:55:13;22.70;86.20
13326;DHT22;6732;51.044;3.746;2022-07-05T14:57:39;22.80;86.10
13326;DHT22;6732;51.044;3.746;2022-07-05T15:00:08;22.70;86.40
13326;DHT22;6732;51.044;3.746;2022-07-05T15:02:35;22.70;85.10
13326;DHT22;6732;51.044;3.746;2022-07-05T15:05:01;22.70;86.20
13326;DHT22;6732;51.044;3.746;2022-07-05T15:07:28;22.50;85.60
13326;DHT22;6732;51.044;3.746;2022-07-05T15:09:54;22.50;85.80
13326;DHT22;6732;51.044;3.746;2022-07-05T15:12:20;22.50;85.80
13326;DHT22;6732;51.044;3.746;2022-07-05T15:14:46;22.60;86.40
13326;DHT22;6732;51.044;3.746;2022-07-05T15:17:12;22.40;84.10
13326;DHT22;6732;51.044;3.746;2022-07-05T15:19:38;22.40;85.40
13326;DHT22;6732;51.044;3.746;2022-07-05T15:22:06;22.50;85.80
13326;DHT22;6732;51.044;3.746;2022-07-05T15:24:32;22.50;84.30
13326;DHT22;6732;51.044;3.746;2022-07-05T15:26:58;22.50;85.30
13326;DHT22;6732;51.044;3.746;2022-07-05T15:29:24;22.40;84.70
13326;DHT22;6732;51.044;3.746;2022-07-05T15:31:52;22.40;84.60
13326;DHT22;6732;51.044;3.746;2022-07-05T15:34:18;22.30;85.30
13326;DHT22;6732;51.044;3.746;2022-07-05T15:36:44;22.10;84.20
13326;DHT22;6732;51.044;3.746;2022-07-05T15:39:10;22.10;84.80
13326;DHT22;6732;51.044;3.746;2022-07-05T15:41:36;22.20;85.50
13326;DHT22;6732;51.044;3.746;2022-07-05T15:44:03;22.20;85.40
13326;DHT22;6732;51.044;3.746;2022-07-05T15:46:29;22.20;85.00
13326;DHT22;6732;51.044;3.746;2022-07-05T15:49:16;22.10;83.40
13326;DHT22;6732;51.044;3.746;2022-07-05T15:51:42;22.00;84.00
13326;DHT22;6732;51.044;3.746;2022-07-05T15:54:08;22.10;85.00
13326;DHT22;6732;51.044;3.746;2022-07-05T15:56:34;22.10;84.60
13326;DHT22;6732;51.044;3.746;2022-07-05T15:59:01;22.10;82.90
13326;DHT22;6732;51.044;3.746;2022-07-05T16:01:27;22.00;83.90
13326;DHT22;6732;51.044;3.746;2022-07-05T16:03:53;22.00;82.90
13326;DHT22;6732;51.044;3.746;2022-07-05T16:06:19;21.90;84.20
13326;DHT22;6732;51.044;3.746;2022-07-05T16:08:44;22.00;84.30
13326;DHT22;6732;51.044;3.746;2022-07-05T16:11:10;21.90;83.70
13326;DHT22;6732;51.044;3.746;2022-07-05T16:13:36;21.90;85.10
13326;DHT22;6732;51.044;3.746;2022-07-05T16:16:02;22.00;82.90
13326;DHT22;6732;51.044;3.746;2022-07-05T16:18:46;21.80;81.90
13326;DHT22;6732;51.044;3.746;2022-07-05T16:21:13;21.70;82.30
13326;DHT22;6732;51.044;3.746;2022-07-05T16:23:41;21.60;82.90
13326;DHT22;6732;51.044;3.746;2022-07-05T16:26:09;21.60;82.60